createdAt,value
2023-02-22T00:01:47.588Z,9.45
2023-02-22T00:04:16.226Z,9.43
2023-02-22T00:06:42.871Z,9.42
2023-02-22T00:09:10.428Z,9.39
2023-02-22T00:11:38.790Z,9.34
2023-02-22T00:14:05.836Z,9.33
2023-02-22T00:16:32.575Z,9.32
2023-02-22T00:18:59.436Z,9.35
2023-02-22T00:21:26.114Z,9.33
2023-02-22T00:23:54.756Z,9.30
2023-02-22T00:26:23.663Z,9.19
2023-02-22T00:28:54.345Z,9.10
2023-02-22T00:31:22.581Z,8.97
2023-02-22T00:33:49.736Z,8.91
2023-02-22T00:36:16.390Z,8.75
2023-02-22T00:38:43.016Z,8.69
2023-02-22T00:41:10.342Z,8.61
2023-02-22T00:43:37.015Z,8.57
2023-02-22T00:46:04.304Z,8.52
2023-02-22T00:48:31.331Z,8.39
2023-02-22T00:50:58.151Z,8.32
2023-02-22T00:53:26.134Z,8.26
2023-02-22T00:55:53.556Z,8.23
2023-02-22T00:58:21.253Z,8.21
2023-02-22T01:00:48.020Z,8.15
2023-02-22T01:03:18.494Z,8.08
2023-02-22T01:05:46.217Z,8.01
2023-02-22T01:08:15.634Z,8.03
2023-02-22T01:10:43.156Z,8.00
2023-02-22T01:13:12.649Z,7.93
2023-02-22T01:15:45.090Z,7.89
2023-02-22T01:18:13.035Z,7.90
2023-02-22T01:20:40.125Z,7.87
2023-02-22T01:23:08.232Z,7.87
2023-02-22T01:25:36.241Z,7.86
2023-02-22T01:28:04.254Z,7.85
2023-02-22T01:30:34.510Z,7.82
2023-02-22T01:33:03.236Z,7.81
2023-02-22T01:35:32.889Z,7.79
2023-02-22T01:38:00.118Z,7.79
2023-02-22T01:40:30.374Z,7.78
2023-02-22T01:42:59.861Z,7.78
2023-02-22T01:45:40.962Z,7.78
2023-02-22T01:48:10.416Z,7.79
2023-02-22T01:50:41.368Z,7.77
2023-02-22T01:53:11.186Z,7.76
2023-02-22T01:55:39.112Z,7.74
2023-02-22T01:58:07.329Z,7.72
2023-02-22T02:00:33.994Z,7.72
2023-02-22T02:03:06.533Z,7.73
2023-02-22T02:05:34.682Z,7.69
2023-02-22T02:08:13.350Z,7.71
2023-02-22T02:10:42.113Z,7.70
2023-02-22T02:13:10.212Z,7.69
2023-02-22T02:15:37.293Z,7.72
2023-02-22T02:18:09.219Z,7.71
2023-02-22T02:20:44.626Z,7.70
2023-02-22T02:23:41.345Z,7.66
2023-02-22T02:26:32.595Z,7.63
2023-02-22T02:29:27.817Z,7.60
2023-02-22T02:32:06.766Z,7.56
2023-02-22T02:34:39.374Z,7.50
2023-02-22T02:37:11.118Z,7.42
2023-02-22T02:39:53.653Z,7.36
2023-02-22T02:42:28.012Z,7.34
2023-02-22T02:45:10.152Z,7.37
2023-02-22T02:47:48.621Z,7.40
2023-02-22T02:50:43.520Z,7.39
2023-02-22T02:53:11.909Z,7.43
2023-02-22T02:55:38.677Z,7.42
2023-02-22T02:58:08.134Z,7.41
2023-02-22T03:00:41.279Z,7.40
2023-02-22T03:03:33.545Z,7.43
2023-02-22T03:06:13.483Z,7.42
2023-02-22T03:09:19.059Z,7.40
2023-02-22T03:12:06.094Z,7.36
2023-02-22T03:14:43.904Z,7.34
2023-02-22T03:17:23.778Z,7.31
2023-02-22T03:19:58.198Z,7.29
2023-02-22T03:22:35.007Z,7.29
2023-02-22T03:25:17.681Z,7.23
2023-02-22T03:27:50.217Z,7.18
2023-02-22T03:30:27.656Z,7.17
2023-02-22T03:33:02.550Z,7.14
2023-02-22T03:35:35.283Z,7.06
2023-02-22T03:38:07.564Z,7.02
2023-02-22T03:40:39.230Z,7.03
2023-02-22T03:43:10.327Z,7.04
2023-02-22T03:45:39.519Z,7.07
2023-02-22T03:48:22.231Z,7.05
2023-02-22T03:50:50.182Z,7.02
2023-02-22T03:53:19.212Z,7.03
2023-02-22T03:55:51.824Z,7.04
2023-02-22T03:58:22.170Z,7.00
2023-02-22T04:00:53.423Z,7.03
2023-02-22T04:03:22.297Z,7.00
2023-02-22T04:05:49.818Z,6.99
2023-02-22T04:08:17.056Z,6.98
2023-02-22T04:10:43.806Z,6.99
2023-02-22T04:13:10.815Z,7.00
2023-02-22T04:15:38.166Z,6.99
2023-02-22T04:18:05.816Z,7.00
2023-02-22T04:20:34.903Z,7.00
2023-02-22T04:23:04.502Z,6.97
2023-02-22T04:25:31.190Z,6.94
2023-02-22T04:27:58.012Z,6.92
2023-02-22T04:30:24.838Z,6.91
2023-02-22T04:32:51.652Z,6.87
2023-02-22T04:35:18.451Z,6.82
2023-02-22T04:37:45.330Z,6.83
2023-02-22T04:40:12.250Z,6.79
2023-02-22T04:42:39.751Z,6.72
2023-02-22T04:45:09.182Z,6.68
2023-02-22T04:47:36.932Z,6.61
2023-02-22T04:50:06.436Z,6.54
2023-02-22T04:52:33.315Z,6.53
2023-02-22T04:55:00.054Z,6.52
2023-02-22T04:57:27.270Z,6.52
2023-02-22T04:59:54.269Z,6.54
2023-02-22T05:02:21.063Z,6.53
2023-02-22T05:04:47.814Z,6.55
2023-02-22T05:07:14.945Z,6.53
2023-02-22T05:09:41.853Z,6.56
2023-02-22T05:12:08.526Z,6.56
2023-02-22T05:14:35.797Z,6.54
2023-02-22T05:17:03.288Z,6.54
2023-02-22T05:19:29.954Z,6.53
2023-02-22T05:21:56.878Z,6.51
2023-02-22T05:24:23.662Z,6.51
2023-02-22T05:26:51.388Z,6.49
2023-02-22T05:29:18.281Z,6.47
2023-02-22T05:31:45.137Z,6.44
2023-02-22T05:34:12.174Z,6.44
2023-02-22T05:36:39.156Z,6.43
2023-02-22T05:39:05.850Z,6.43
2023-02-22T05:41:32.654Z,6.39
2023-02-22T05:43:59.673Z,6.36
2023-02-22T05:46:26.519Z,6.37
2023-02-22T05:48:53.156Z,6.35
2023-02-22T05:51:20.013Z,6.31
2023-02-22T05:53:46.826Z,6.32
2023-02-22T05:56:13.490Z,6.31
2023-02-22T05:58:40.209Z,6.28
2023-02-22T06:01:07.020Z,6.29
2023-02-22T06:03:33.680Z,6.28
2023-02-22T06:06:00.510Z,6.26
2023-02-22T06:08:27.205Z,6.23
2023-02-22T06:10:54.535Z,6.21
2023-02-22T06:13:21.496Z,6.18
2023-02-22T06:15:48.184Z,6.19
2023-02-22T06:18:14.849Z,6.16
2023-02-22T06:20:41.851Z,6.13
2023-02-22T06:23:08.669Z,6.09
2023-02-22T06:25:35.343Z,6.11
2023-02-22T06:28:02.959Z,6.10
2023-02-22T06:30:30.395Z,6.11
2023-02-22T06:32:57.248Z,6.14
2023-02-22T06:35:24.056Z,6.15
2023-02-22T06:37:51.204Z,6.15
2023-02-22T06:40:17.999Z,6.15
2023-02-22T06:42:47.476Z,6.14
2023-02-22T06:45:14.405Z,6.14
2023-02-22T06:47:43.814Z,6.11
2023-02-22T06:50:20.774Z,6.07
2023-02-22T06:52:48.140Z,6.05
2023-02-22T06:55:44.312Z,5.96
2023-02-22T06:58:10.969Z,5.91
2023-02-22T07:00:37.677Z,5.85
2023-02-22T07:03:05.245Z,5.79
2023-02-22T07:05:31.925Z,5.77
2023-02-22T07:08:05.476Z,5.73
2023-02-22T07:10:33.669Z,5.70
2023-02-22T07:13:01.298Z,5.67
2023-02-22T07:15:30.056Z,5.65
2023-02-22T07:17:57.288Z,5.62
2023-02-22T07:20:25.766Z,5.61
2023-02-22T07:22:52.962Z,5.56
2023-02-22T07:25:20.400Z,5.54
2023-02-22T07:27:47.183Z,5.46
2023-02-22T07:30:18.511Z,5.38
2023-02-22T07:32:46.358Z,5.35
2023-02-22T07:35:30.228Z,5.29
2023-02-22T07:37:57.525Z,5.22
2023-02-22T07:40:25.797Z,5.16
2023-02-22T07:42:55.264Z,5.07
2023-02-22T07:45:23.593Z,5.03
2023-02-22T07:47:50.341Z,4.99
2023-02-22T07:50:18.295Z,4.96
2023-02-22T07:52:46.940Z,4.95
2023-02-22T07:55:18.667Z,4.95
2023-02-22T07:57:47.053Z,4.95
2023-02-22T08:00:15.663Z,4.94
2023-02-22T08:02:43.706Z,4.94
2023-02-22T08:05:11.375Z,4.95
2023-02-22T08:07:38.689Z,4.95
2023-02-22T08:10:07.830Z,4.98
2023-02-22T08:12:36.381Z,5.02
2023-02-22T08:15:05.269Z,5.01
2023-02-22T08:17:32.126Z,5.01
2023-02-22T08:19:58.925Z,5.05
2023-02-22T08:22:27.680Z,5.22
2023-02-22T08:24:55.017Z,5.34
2023-02-22T08:27:29.696Z,5.39
2023-02-22T08:29:57.674Z,5.48
2023-02-22T08:32:24.560Z,5.46
2023-02-22T08:34:51.642Z,5.43
2023-02-22T08:37:18.934Z,5.48
2023-02-22T08:39:45.654Z,5.39
2023-02-22T08:42:12.591Z,5.38
2023-02-22T08:44:40.144Z,5.38
2023-02-22T08:47:08.613Z,5.36
2023-02-22T08:49:35.641Z,5.39
2023-02-22T08:52:02.354Z,5.41
2023-02-22T08:54:29.165Z,5.41
2023-02-22T08:56:55.870Z,5.43
2023-02-22T08:59:22.597Z,5.43
2023-02-22T09:01:49.555Z,5.50
2023-02-22T09:04:16.355Z,5.53
2023-02-22T09:06:44.182Z,5.56
2023-02-22T09:09:11.050Z,5.60
2023-02-22T09:11:37.736Z,5.60
2023-02-22T09:14:04.465Z,5.59
2023-02-22T09:16:31.221Z,5.57
2023-02-22T09:18:57.957Z,5.50
2023-02-22T09:21:24.689Z,5.50
2023-02-22T09:23:54.766Z,5.54
2023-02-22T09:26:23.832Z,5.58
2023-02-22T09:28:51.070Z,5.63
2023-02-22T09:31:18.250Z,5.69
2023-02-22T09:33:47.340Z,5.78
2023-02-22T09:36:14.389Z,5.93
2023-02-22T09:38:41.393Z,6.09
2023-02-22T09:41:24.135Z,6.27
2023-02-22T09:43:50.714Z,6.42
2023-02-22T09:46:47.667Z,6.54
2023-02-22T09:49:27.957Z,6.70
2023-02-22T09:52:12.444Z,6.84
2023-02-22T09:54:44.312Z,6.99
2023-02-22T09:57:26.941Z,7.04
2023-02-22T10:00:13.621Z,7.11
2023-02-22T10:03:21.254Z,7.21
2023-02-22T10:05:58.945Z,7.28
2023-02-22T10:08:31.340Z,7.43
2023-02-22T10:11:04.676Z,7.44
2023-02-22T10:13:51.838Z,7.46
2023-02-22T10:16:37.077Z,7.58
2023-02-22T10:19:30.128Z,7.64
2023-02-22T10:22:05.165Z,7.66
2023-02-22T10:25:09.652Z,7.63
2023-02-22T10:27:44.954Z,7.56
2023-02-22T10:30:25.942Z,7.63
2023-02-22T10:33:17.483Z,7.91
2023-02-22T10:35:46.960Z,8.17
2023-02-22T10:38:29.798Z,8.31
2023-02-22T10:41:02.220Z,8.28
2023-02-22T10:43:29.487Z,8.14
2023-02-22T10:46:02.848Z,8.04
2023-02-22T10:48:32.605Z,8.03
2023-02-22T10:51:04.174Z,8.01
2023-02-22T10:53:31.199Z,8.04
2023-02-22T10:56:18.763Z,8.10
2023-02-22T10:59:04.523Z,8.13
2023-02-22T11:01:31.352Z,8.19
2023-02-22T11:04:17.908Z,8.20
2023-02-22T11:10:38.950Z,8.35
2023-02-22T11:13:31.763Z,8.50
2023-02-22T11:16:38.512Z,8.62
2023-02-22T11:19:27.210Z,8.75
2023-02-22T11:21:58.449Z,8.91
2023-02-22T11:24:30.391Z,9.11
2023-02-22T11:27:02.842Z,9.30
2023-02-22T11:29:38.406Z,9.56
2023-02-22T11:32:15.253Z,9.67
2023-02-22T11:34:42.825Z,9.67
2023-02-22T11:37:22.481Z,9.82
2023-02-22T11:40:18.173Z,10.01
2023-02-22T11:42:46.252Z,10.29
2023-02-22T11:45:21.322Z,10.51
2023-02-22T11:48:00.700Z,10.39
2023-02-22T11:50:42.241Z,10.34
2023-02-22T11:53:32.131Z,10.27
2023-02-22T11:56:14.068Z,10.03
2023-02-22T11:58:43.429Z,9.98
2023-02-22T12:01:31.391Z,9.86
2023-02-22T12:04:31.031Z,9.67
2023-02-22T12:07:22.642Z,9.70
2023-02-22T12:10:09.306Z,9.80
2023-02-22T12:13:17.141Z,9.91
2023-02-22T12:16:07.340Z,10.05
2023-02-22T12:18:48.900Z,10.20
2023-02-22T12:21:20.775Z,10.20
2023-02-22T12:24:07.494Z,10.27
2023-02-22T12:26:40.152Z,10.32
2023-02-22T12:29:42.103Z,10.25
2023-02-22T12:32:32.925Z,10.32
2023-02-22T12:35:08.959Z,10.40
2023-02-22T12:37:58.604Z,10.50
2023-02-22T12:40:57.214Z,10.55
2023-02-22T12:43:48.327Z,10.71
2023-02-22T12:46:31.132Z,10.91
2023-02-22T12:49:27.085Z,11.01
2023-02-22T12:52:31.337Z,10.86
2023-02-22T12:55:56.762Z,10.91
2023-02-22T12:58:35.311Z,10.90
2023-02-22T13:01:18.285Z,10.95
2023-02-22T13:03:46.242Z,10.96
2023-02-22T13:06:41.930Z,10.80
2023-02-22T13:09:42.467Z,10.65
2023-02-22T13:12:19.548Z,10.64
2023-02-22T13:15:09.497Z,10.49
2023-02-22T13:17:39.151Z,10.49
2023-02-22T13:20:18.613Z,10.58
2023-02-22T13:22:55.598Z,10.56
2023-02-22T13:25:38.325Z,10.40
2023-02-22T13:28:17.316Z,10.34
2023-02-22T13:30:57.378Z,10.21
2023-02-22T13:33:39.307Z,10.04
2023-02-22T13:36:41.199Z,9.86
2023-02-22T13:39:28.714Z,9.68
2023-02-22T13:42:17.224Z,9.61
2023-02-22T13:45:08.599Z,9.51
2023-02-22T13:47:46.667Z,9.52
2023-02-22T13:50:19.423Z,9.56
2023-02-22T13:52:48.002Z,9.59
2023-02-22T13:55:32.889Z,9.57
2023-02-22T13:58:59.468Z,9.57
2023-02-22T14:01:48.361Z,9.66
2023-02-22T14:04:27.320Z,9.73
2023-02-22T14:06:56.420Z,9.88
2023-02-22T14:09:51.998Z,9.96
2023-02-22T14:12:48.767Z,10.01
2023-02-22T14:15:29.262Z,10.11
2023-02-22T14:17:57.223Z,10.24
2023-02-22T14:20:31.140Z,10.28
2023-02-22T14:23:21.084Z,10.25
2023-02-22T14:25:48.107Z,10.30
2023-02-22T14:28:37.010Z,10.11
2023-02-22T14:31:37.032Z,10.06
2023-02-22T14:34:07.163Z,10.00
2023-02-22T14:36:44.749Z,10.00
2023-02-22T14:39:21.257Z,10.11
2023-02-22T14:42:12.985Z,10.15
2023-02-22T14:44:49.256Z,10.30
2023-02-22T14:47:28.351Z,10.38
2023-02-22T14:50:03.868Z,10.43
2023-02-22T14:52:35.096Z,10.47
2023-02-22T14:55:14.478Z,10.51
2023-02-22T14:57:55.019Z,10.62
2023-02-22T15:00:30.898Z,10.73
2023-02-22T15:03:00.607Z,10.83
2023-02-22T15:05:34.322Z,10.93
2023-02-22T15:08:05.074Z,11.00
2023-02-22T15:10:31.819Z,11.01
2023-02-22T15:13:11.190Z,11.11
2023-02-22T15:15:48.322Z,11.13
2023-02-22T15:18:30.399Z,11.07
2023-02-22T15:21:13.104Z,10.94
2023-02-22T15:23:50.731Z,10.87
2023-02-22T15:26:58.958Z,10.77
2023-02-22T15:29:36.731Z,10.68
2023-02-22T15:32:19.283Z,10.68
2023-02-22T15:34:46.453Z,10.70
2023-02-22T15:37:25.524Z,10.60
2023-02-22T15:39:59.677Z,10.48
2023-02-22T15:42:30.418Z,10.38
2023-02-22T15:44:58.167Z,10.27
2023-02-22T15:47:30.331Z,10.09
2023-02-22T15:50:23.321Z,9.96
2023-02-22T15:53:07.493Z,9.91
2023-02-22T15:55:40.458Z,9.81
2023-02-22T15:58:33.218Z,9.68
2023-02-22T16:01:01.470Z,9.58
2023-02-22T16:03:39.005Z,9.55
2023-02-22T16:06:12.862Z,9.53
2023-02-22T16:08:55.090Z,9.49
2023-02-22T16:11:46.712Z,9.41
2023-02-22T16:14:52.686Z,9.25
2023-02-22T16:17:25.869Z,9.11
2023-02-22T16:19:53.624Z,9.01
2023-02-22T16:22:36.374Z,8.95
2023-02-22T16:25:37.433Z,8.81
2023-02-22T16:28:26.288Z,8.79
2023-02-22T16:30:59.359Z,8.74
2023-02-22T16:33:29.871Z,8.71
2023-02-22T16:35:57.195Z,8.69
2023-02-22T16:38:27.657Z,8.70
2023-02-22T16:40:56.056Z,8.76
2023-02-22T16:43:25.318Z,8.72
2023-02-22T16:45:53.325Z,8.66
2023-02-22T16:48:23.557Z,8.60
2023-02-22T16:50:51.926Z,8.53
2023-02-22T16:53:21.490Z,8.51
2023-02-22T16:55:49.416Z,8.46
2023-02-22T16:58:19.276Z,8.42
2023-02-22T17:00:46.064Z,8.38
2023-02-22T17:03:18.177Z,8.33
2023-02-22T17:05:45.285Z,8.31
2023-02-22T17:08:12.048Z,8.34
2023-02-22T17:10:38.812Z,8.39
2023-02-22T17:13:21.251Z,8.45
2023-02-22T17:15:49.406Z,8.48
2023-02-22T17:18:22.574Z,8.39
2023-02-22T17:20:51.405Z,8.33
2023-02-22T17:23:18.594Z,8.24
2023-02-22T17:25:54.375Z,8.16
2023-02-22T17:28:23.657Z,8.08
2023-02-22T17:30:51.674Z,7.99
2023-02-22T17:33:22.100Z,7.89
2023-02-22T17:35:48.822Z,7.78
2023-02-22T17:38:18.633Z,7.71
2023-02-22T17:40:52.377Z,7.66
2023-02-22T17:43:22.333Z,7.62
2023-02-22T17:45:49.454Z,7.64
2023-02-22T17:48:17.656Z,7.70
2023-02-22T17:50:46.563Z,7.78
2023-02-22T17:53:14.302Z,7.85
2023-02-22T17:55:43.174Z,7.88
2023-02-22T17:58:14.840Z,7.85
2023-02-22T18:00:50.183Z,7.73
2023-02-22T18:03:25.692Z,7.62
2023-02-22T18:05:56.308Z,7.51
2023-02-22T18:08:24.611Z,7.41
2023-02-22T18:10:56.539Z,7.29
2023-02-22T18:13:26.382Z,7.11
2023-02-22T18:15:58.039Z,7.02
2023-02-22T18:18:25.017Z,6.92
2023-02-22T18:20:51.752Z,6.84
2023-02-22T18:23:22.471Z,6.78
2023-02-22T18:26:07.568Z,6.75
2023-02-22T18:28:36.326Z,6.74
2023-02-22T18:31:08.108Z,6.74
2023-02-22T18:33:34.843Z,6.70
2023-02-22T18:36:03.297Z,6.65
2023-02-22T18:38:30.367Z,6.62
2023-02-22T18:41:06.069Z,6.58
2023-02-22T18:43:36.794Z,6.53
2023-02-22T18:46:18.372Z,6.48
2023-02-22T18:48:47.209Z,6.48
2023-02-22T18:51:16.176Z,6.55
2023-02-22T18:53:48.058Z,6.63
2023-02-22T18:56:21.844Z,6.69
2023-02-22T18:58:54.023Z,6.70
2023-02-22T19:01:22.151Z,6.67
2023-02-22T19:03:49.020Z,6.59
2023-02-22T19:06:17.875Z,6.55
2023-02-22T19:08:45.793Z,6.48
2023-02-22T19:11:23.733Z,6.43
2023-02-22T19:13:54.012Z,6.38
2023-02-22T19:16:22.942Z,6.39
2023-02-22T19:18:52.698Z,6.44
2023-02-22T19:21:20.259Z,6.47
2023-02-22T19:23:48.275Z,6.44
2023-02-22T19:26:26.490Z,6.42
2023-02-22T19:28:55.227Z,6.39
2023-02-22T19:31:26.507Z,6.42
2023-02-22T19:33:53.765Z,6.47
2023-02-22T19:36:23.129Z,6.52
2023-02-22T19:38:50.237Z,6.54
2023-02-22T19:41:20.340Z,6.56
2023-02-22T19:43:48.549Z,6.54
2023-02-22T19:46:17.850Z,6.57
2023-02-22T19:48:45.599Z,6.56
2023-02-22T19:51:14.664Z,6.56
2023-02-22T19:53:42.436Z,6.55
2023-02-22T19:56:31.418Z,6.57
2023-02-22T19:59:03.092Z,6.55
2023-02-22T20:01:33.460Z,6.52
2023-02-22T20:04:05.703Z,6.47
2023-02-22T20:06:40.454Z,6.41
2023-02-22T20:09:18.015Z,6.29
2023-02-22T20:11:48.944Z,6.22
2023-02-22T20:14:21.294Z,6.14
2023-02-22T20:16:48.117Z,6.09
2023-02-22T20:19:14.965Z,6.06
2023-02-22T20:21:41.937Z,6.04
2023-02-22T20:24:15.094Z,6.04
2023-02-22T20:26:45.153Z,6.03
2023-02-22T20:29:12.028Z,6.03
2023-02-22T20:32:38.699Z,6.03
2023-02-22T20:35:06.636Z,6.04
2023-02-22T20:37:34.416Z,6.02
2023-02-22T20:40:05.206Z,6.05
2023-02-22T20:42:32.139Z,6.08
2023-02-22T20:45:02.000Z,6.15
2023-02-22T20:47:28.925Z,6.19
2023-02-22T20:49:55.711Z,6.23
2023-02-22T20:52:22.565Z,6.28
2023-02-22T20:54:49.484Z,6.31
2023-02-22T20:57:16.273Z,6.32
2023-02-22T20:59:44.444Z,6.29
2023-02-22T21:02:11.280Z,6.27
2023-02-22T21:04:38.026Z,6.27
2023-02-22T21:07:05.338Z,6.24
2023-02-22T21:09:34.030Z,6.18
2023-02-22T21:12:00.948Z,6.09
2023-02-22T21:15:27.672Z,6.03
2023-02-22T21:18:10.868Z,5.98
2023-02-22T21:21:17.643Z,5.98
2023-02-22T21:24:45.153Z,6.07
2023-02-22T21:28:11.731Z,6.14
2023-02-22T21:31:03.970Z,6.16
2023-02-22T21:33:35.467Z,6.10
2023-02-22T21:37:04.561Z,6.09
2023-02-22T21:39:31.837Z,6.10
2023-02-22T21:42:58.399Z,6.13
2023-02-22T21:46:03.923Z,6.15
2023-02-22T21:48:50.662Z,6.20
2023-02-22T21:52:23.452Z,6.22
2023-02-22T21:55:50.201Z,6.26
2023-02-22T21:58:17.276Z,6.23
2023-02-22T22:01:05.993Z,6.32
2023-02-22T22:04:32.851Z,6.35
2023-02-22T22:07:04.508Z,6.40
2023-02-22T22:09:38.316Z,6.42
2023-02-22T22:13:04.858Z,6.38
2023-02-22T22:20:11.005Z,6.25
2023-02-22T22:23:37.648Z,6.25
2023-02-22T22:26:11.124Z,6.25
2023-02-22T22:32:22.214Z,6.27
2023-02-22T22:35:48.766Z,6.29
2023-02-22T22:38:15.700Z,6.26
2023-02-22T22:40:42.452Z,6.15
2023-02-22T22:43:09.108Z,6.06
2023-02-22T22:45:37.421Z,6.01
2023-02-22T22:48:04.735Z,5.98
2023-02-22T22:50:31.441Z,5.94
2023-02-22T22:52:58.415Z,5.92
2023-02-22T22:55:25.198Z,5.88
2023-02-22T22:57:52.194Z,5.80
2023-02-22T23:00:37.761Z,5.78
2023-02-22T23:03:05.906Z,5.76
2023-02-22T23:05:42.589Z,5.73
2023-02-22T23:08:11.045Z,5.70
2023-02-22T23:10:42.003Z,5.64
2023-02-22T23:13:12.381Z,5.62
2023-02-22T23:15:43.201Z,5.59
2023-02-22T23:18:10.021Z,5.56
2023-02-22T23:20:39.674Z,5.51
2023-02-22T23:23:14.733Z,5.51
2023-02-22T23:25:42.444Z,5.46
2023-02-22T23:28:14.812Z,5.43
2023-02-22T23:30:42.225Z,5.40
2023-02-22T23:33:09.647Z,5.41
2023-02-22T23:35:36.568Z,5.38
2023-02-22T23:38:04.264Z,5.36
2023-02-22T23:40:31.114Z,5.32
2023-02-22T23:42:58.117Z,5.30
2023-02-22T23:45:27.187Z,5.26
2023-02-22T23:47:57.789Z,5.23
2023-02-22T23:50:31.674Z,5.20
2023-02-22T23:53:03.665Z,5.19
2023-02-22T23:55:32.709Z,5.14
2023-02-22T23:57:59.944Z,5.12
